createdAt,value
2019-05-28T00:00:04.149Z,99.90
2019-05-28T00:02:35.291Z,99.90
2019-05-28T00:05:09.663Z,99.90
2019-05-28T00:07:41.372Z,99.90
2019-05-28T00:10:11.846Z,99.90
2019-05-28T00:12:44.296Z,99.90
2019-05-28T00:15:22.349Z,99.90
2019-05-28T00:18:05.742Z,99.90
2019-05-28T00:20:36.785Z,99.90
2019-05-28T00:23:07.248Z,99.90
2019-05-28T00:25:41.468Z,99.90
2019-05-28T00:28:13.679Z,99.90
2019-05-28T00:30:44.194Z,99.90
2019-05-28T00:33:22.538Z,99.90
2019-05-28T00:35:54.714Z,99.90
2019-05-28T00:38:26.465Z,99.90
2019-05-28T00:41:00.261Z,99.90
2019-05-28T00:43:30.660Z,99.90
2019-05-28T00:46:09.472Z,99.90
2019-05-28T00:48:56.490Z,99.90
2019-05-28T00:51:29.489Z,99.90
2019-05-28T00:54:07.558Z,99.90
2019-05-28T00:56:40.987Z,99.90
2019-05-28T00:59:23.126Z,99.90
2019-05-28T01:02:04.300Z,99.90
2019-05-28T01:04:41.204Z,99.90
2019-05-28T01:07:16.784Z,99.90
2019-05-28T01:09:49.675Z,99.90
2019-05-28T01:12:27.283Z,99.90
2019-05-28T01:15:03.644Z,99.90
2019-05-28T01:17:35.814Z,99.90
2019-05-28T01:20:11.920Z,99.90
2019-05-28T01:22:46.993Z,99.90
2019-05-28T01:25:20.766Z,99.90
2019-05-28T01:27:54.827Z,99.90
2019-05-28T01:30:25.683Z,99.90
2019-05-28T01:33:00.403Z,99.90
2019-05-28T01:35:39.321Z,99.90
2019-05-28T01:38:13.805Z,99.90
2019-05-28T01:41:04.188Z,99.90
2019-05-28T01:43:58.008Z,99.90
2019-05-28T01:46:37.652Z,99.90
2019-05-28T01:49:37.350Z,99.90
2019-05-28T01:52:38.178Z,99.90
2019-05-28T01:55:07.049Z,99.90
2019-05-28T01:57:39.157Z,99.90
2019-05-28T02:00:10.288Z,99.90
2019-05-28T02:02:41.144Z,99.90
2019-05-28T02:05:12.514Z,99.90
2019-05-28T02:07:42.694Z,99.90
2019-05-28T02:10:16.115Z,99.90
2019-05-28T02:12:46.652Z,99.90
2019-05-28T02:15:17.621Z,99.90
2019-05-28T02:17:48.183Z,99.90
2019-05-28T02:20:18.265Z,99.90
2019-05-28T02:22:48.340Z,99.90
2019-05-28T02:25:18.746Z,99.90
2019-05-28T02:27:50.116Z,99.90
2019-05-28T02:30:21.362Z,99.90
2019-05-28T02:32:51.607Z,99.90
2019-05-28T02:35:21.873Z,99.90
2019-05-28T02:37:52.045Z,99.90
2019-05-28T02:40:24.772Z,99.90
2019-05-28T02:42:56.857Z,99.90
2019-05-28T02:45:30.531Z,99.90
2019-05-28T02:48:01.427Z,99.90
2019-05-28T02:50:57.728Z,99.90
2019-05-28T02:53:28.516Z,99.90
2019-05-28T02:56:00.497Z,99.90
2019-05-28T02:58:34.439Z,99.90
2019-05-28T03:01:07.119Z,99.90
2019-05-28T03:03:39.747Z,99.90
2019-05-28T03:06:11.264Z,99.90
2019-05-28T03:08:43.181Z,99.90
2019-05-28T03:11:13.433Z,99.90
2019-05-28T03:13:43.967Z,99.90
2019-05-28T03:16:22.866Z,99.90
2019-05-28T03:18:55.216Z,99.90
2019-05-28T03:21:28.146Z,99.90
2019-05-28T03:24:01.420Z,99.90
2019-05-28T03:26:32.508Z,99.90
2019-05-28T03:29:03.433Z,99.90
2019-05-28T03:31:34.333Z,99.90
2019-05-28T03:34:04.355Z,99.90
2019-05-28T03:36:35.731Z,99.90
2019-05-28T03:39:09.622Z,99.90
2019-05-28T03:41:39.601Z,99.90
2019-05-28T03:44:12.660Z,99.90
2019-05-28T03:46:43.328Z,99.90
2019-05-28T03:49:13.489Z,99.90
2019-05-28T03:51:43.995Z,99.90
2019-05-28T03:54:14.241Z,99.90
2019-05-28T03:56:44.246Z,99.90
2019-05-28T03:59:14.587Z,99.90
2019-05-28T04:01:44.778Z,99.90
2019-05-28T04:04:14.893Z,99.90
2019-05-28T04:06:47.941Z,99.90
2019-05-28T04:09:17.937Z,99.90
2019-05-28T04:11:48.226Z,99.90
2019-05-28T04:14:18.598Z,99.90
2019-05-28T04:16:48.976Z,99.90
2019-05-28T04:19:26.714Z,99.90
2019-05-28T04:21:59.034Z,99.90
2019-05-28T04:24:30.137Z,99.90
2019-05-28T04:27:03.968Z,99.90
2019-05-28T04:29:36.800Z,99.90
2019-05-28T04:32:07.163Z,99.90
2019-05-28T04:34:37.430Z,99.90
2019-05-28T04:37:07.860Z,99.90
2019-05-28T04:39:42.516Z,99.90
2019-05-28T04:42:13.831Z,99.90
2019-05-28T04:45:01.702Z,99.90
2019-05-28T04:47:32.200Z,99.90
2019-05-28T04:50:02.408Z,99.90
2019-05-28T04:52:32.778Z,99.90
2019-05-28T04:55:03.276Z,99.90
2019-05-28T04:57:33.712Z,99.90
2019-05-28T05:00:06.687Z,99.90
2019-05-28T05:02:36.981Z,99.90
2019-05-28T05:05:07.591Z,99.90
2019-05-28T05:07:37.682Z,99.90
2019-05-28T05:10:08.491Z,99.90
2019-05-28T05:12:39.279Z,99.90
2019-05-28T05:15:09.783Z,99.90
2019-05-28T05:17:41.373Z,99.90
2019-05-28T05:20:12.887Z,99.90
2019-05-28T05:22:45.059Z,99.90
2019-05-28T05:25:22.172Z,99.90
2019-05-28T05:27:52.782Z,99.90
2019-05-28T05:30:22.845Z,99.90
2019-05-28T05:32:53.100Z,99.90
2019-05-28T05:35:23.888Z,99.90
2019-05-28T05:37:57.713Z,99.90
2019-05-28T05:40:29.282Z,99.90
2019-05-28T05:42:59.844Z,99.90
2019-05-28T05:45:30.719Z,99.90
2019-05-28T05:48:09.336Z,99.90
2019-05-28T05:50:40.547Z,99.90
2019-05-28T05:53:16.330Z,99.90
2019-05-28T05:55:48.556Z,99.90
2019-05-28T05:58:45.739Z,99.90
2019-05-28T06:01:54.765Z,99.90
2019-05-28T06:04:27.472Z,99.90
2019-05-28T06:06:57.572Z,99.90
2019-05-28T06:09:28.798Z,99.90
2019-05-28T06:12:03.690Z,99.90
2019-05-28T06:14:56.954Z,99.90
2019-05-28T06:17:36.744Z,99.90
2019-05-28T06:20:10.773Z,99.90
2019-05-28T06:22:44.251Z,99.90
2019-05-28T06:25:15.780Z,99.90
2019-05-28T06:28:00.173Z,99.90
2019-05-28T06:30:37.751Z,99.90
2019-05-28T06:33:09.075Z,99.90
2019-05-28T06:35:41.999Z,99.90
2019-05-28T06:38:13.920Z,99.90
2019-05-28T06:40:47.387Z,99.90
2019-05-28T06:43:20.790Z,99.90
2019-05-28T06:45:53.315Z,99.90
2019-05-28T06:48:30.096Z,99.90
2019-05-28T06:51:01.499Z,99.90
2019-05-28T06:53:32.687Z,99.90
2019-05-28T06:56:06.140Z,99.90
2019-05-28T06:58:42.374Z,99.90
2019-05-28T07:01:22.931Z,99.90
2019-05-28T07:04:12.474Z,99.90
2019-05-28T07:06:27.980Z,99.90
2019-05-28T07:08:58.629Z,99.90
2019-05-28T07:11:35.839Z,99.90
2019-05-28T07:14:06.537Z,99.90
2019-05-28T07:16:52.165Z,99.90
2019-05-28T07:19:24.185Z,99.90
2019-05-28T07:21:56.344Z,99.90
2019-05-28T07:24:30.087Z,99.90
2019-05-28T07:27:01.201Z,99.90
2019-05-28T07:29:45.461Z,99.90
2019-05-28T07:32:16.781Z,99.90
2019-05-28T07:34:57.129Z,99.90
2019-05-28T07:37:31.658Z,99.90
2019-05-28T07:40:02.441Z,99.90
2019-05-28T07:42:36.614Z,99.90
2019-05-28T07:45:08.054Z,99.90
2019-05-28T07:47:40.459Z,99.90
2019-05-28T07:50:14.852Z,99.90
2019-05-28T07:52:48.863Z,99.90
2019-05-28T07:55:21.792Z,99.90
2019-05-28T07:58:00.075Z,99.90
2019-05-28T08:00:44.649Z,99.90
2019-05-28T08:03:17.403Z,99.90
2019-05-28T08:05:47.530Z,99.90
2019-05-28T08:08:21.054Z,99.90
2019-05-28T08:10:51.415Z,99.90
2019-05-28T08:13:37.538Z,99.90
2019-05-28T08:16:14.742Z,99.90
2019-05-28T08:18:32.809Z,99.90
2019-05-28T08:21:03.499Z,99.90
2019-05-28T08:23:34.278Z,99.90
2019-05-28T08:26:05.908Z,99.90
2019-05-28T08:28:36.295Z,99.90
2019-05-28T08:31:17.522Z,99.90
2019-05-28T08:33:51.543Z,99.90
2019-05-28T08:36:30.942Z,99.90
2019-05-28T08:39:06.073Z,99.90
2019-05-28T08:41:43.271Z,98.70
2019-05-28T08:44:14.263Z,99.80
2019-05-28T08:46:52.948Z,99.90
2019-05-28T08:49:40.154Z,99.90
2019-05-28T08:52:12.651Z,99.90
2019-05-28T08:54:47.122Z,99.90
2019-05-28T08:57:19.067Z,99.90
2019-05-28T08:59:50.999Z,99.90
2019-05-28T09:02:36.890Z,99.90
2019-05-28T09:05:25.194Z,99.90
2019-05-28T09:07:40.296Z,99.90
2019-05-28T09:10:10.745Z,99.90
2019-05-28T09:12:43.713Z,99.90
2019-05-28T09:15:15.098Z,99.50
2019-05-28T09:17:53.269Z,91.30
2019-05-28T09:20:32.240Z,77.80
2019-05-28T09:23:03.901Z,69.20
2019-05-28T09:25:40.992Z,80.60
2019-05-28T09:28:28.317Z,99.10
2019-05-28T09:30:45.371Z,99.90
2019-05-28T09:33:16.586Z,99.90
2019-05-28T09:36:08.225Z,99.90
2019-05-28T09:38:29.251Z,99.90
2019-05-28T09:41:05.746Z,99.90
2019-05-28T09:43:38.642Z,99.90
2019-05-28T09:46:18.118Z,99.90
2019-05-28T09:48:48.527Z,99.90
2019-05-28T09:51:21.337Z,97.60
2019-05-28T09:53:53.405Z,90.20
2019-05-28T09:56:24.592Z,90.20
2019-05-28T09:58:59.080Z,88.20
2019-05-28T10:01:36.286Z,91.50
2019-05-28T10:04:10.196Z,78.00
2019-05-28T10:06:48.285Z,89.60
2019-05-28T10:09:21.214Z,99.90
2019-05-28T10:11:54.478Z,99.90
2019-05-28T10:14:33.134Z,99.90
2019-05-28T10:17:11.058Z,99.90
2019-05-28T10:19:44.847Z,99.90
2019-05-28T10:22:16.665Z,99.90
2019-05-28T10:24:50.169Z,99.90
2019-05-28T10:27:25.243Z,99.90
2019-05-28T10:30:01.336Z,99.90
2019-05-28T10:32:40.232Z,99.90
2019-05-28T10:35:11.660Z,99.90
2019-05-28T10:37:44.373Z,99.90
2019-05-28T10:40:16.802Z,99.90
2019-05-28T10:42:48.147Z,99.90
2019-05-28T10:45:25.179Z,99.90
2019-05-28T10:47:59.374Z,99.90
2019-05-28T10:50:39.308Z,99.90
2019-05-28T10:53:11.272Z,99.90
2019-05-28T10:55:44.413Z,99.90
2019-05-28T10:58:15.807Z,99.90
2019-05-28T11:00:48.372Z,99.90
2019-05-28T11:03:25.872Z,99.90
2019-05-28T11:05:57.702Z,99.90
2019-05-28T11:08:28.848Z,99.90
2019-05-28T11:10:59.797Z,99.90
2019-05-28T11:13:30.851Z,99.90
2019-05-28T11:16:07.275Z,99.90
2019-05-28T11:18:41.599Z,99.90
2019-05-28T11:21:14.704Z,99.90
2019-05-28T11:23:46.730Z,99.90
2019-05-28T11:26:21.220Z,99.90
2019-05-28T11:28:52.324Z,99.90
2019-05-28T11:31:23.195Z,99.90
2019-05-28T11:33:55.284Z,99.90
2019-05-28T11:36:27.491Z,99.90
2019-05-28T11:38:59.075Z,99.90
2019-05-28T11:41:41.384Z,97.10
2019-05-28T11:44:01.881Z,98.70
2019-05-28T11:46:32.579Z,92.90
2019-05-28T11:49:07.516Z,93.30
2019-05-28T11:51:45.995Z,98.50
2019-05-28T11:54:17.947Z,96.40
2019-05-28T11:56:49.770Z,90.40
2019-05-28T11:59:23.088Z,95.80
2019-05-28T12:01:53.674Z,80.90
2019-05-28T12:04:25.388Z,68.50
2019-05-28T12:06:56.526Z,77.30
2019-05-28T12:09:27.104Z,60.50
2019-05-28T12:11:58.018Z,59.00
2019-05-28T12:14:29.769Z,56.30
2019-05-28T12:17:16.454Z,59.80
2019-05-28T12:20:31.644Z,58.90
2019-05-28T12:23:11.219Z,58.20
2019-05-28T12:25:40.127Z,58.80
2019-05-28T12:28:36.074Z,66.30
2019-05-28T12:31:08.740Z,61.60
2019-05-28T12:33:42.291Z,62.40
2019-05-28T12:36:18.026Z,64.90
2019-05-28T12:38:51.879Z,71.20
2019-05-28T12:41:26.881Z,71.40
2019-05-28T12:44:00.885Z,68.30
2019-05-28T12:46:32.615Z,64.70
2019-05-28T12:49:05.777Z,63.10
2019-05-28T12:51:40.662Z,58.10
2019-05-28T12:54:19.177Z,56.80
2019-05-28T12:56:52.785Z,55.50
2019-05-28T12:59:25.454Z,54.30
2019-05-28T13:01:57.301Z,55.80
2019-05-28T13:04:31.539Z,56.80
2019-05-28T13:07:11.086Z,55.10
2019-05-28T13:09:41.872Z,58.70
2019-05-28T13:12:19.501Z,60.80
2019-05-28T13:14:54.088Z,65.10
2019-05-28T13:17:29.112Z,69.70
2019-05-28T13:20:03.296Z,71.80
2019-05-28T13:22:34.776Z,68.40
2019-05-28T13:25:07.381Z,77.10
2019-05-28T13:27:58.261Z,80.10
2019-05-28T13:31:00.850Z,91.30
2019-05-28T13:33:41.903Z,96.60
2019-05-28T13:36:21.762Z,97.60
2019-05-28T13:39:01.809Z,97.90
2019-05-28T13:41:46.345Z,96.00
2019-05-28T13:44:21.251Z,97.30
2019-05-28T13:46:57.278Z,94.60
2019-05-28T13:49:33.262Z,96.80
2019-05-28T13:52:12.369Z,95.20
2019-05-28T13:54:46.886Z,93.10
2019-05-28T13:57:44.909Z,93.70
2019-05-28T14:00:17.798Z,95.40
2019-05-28T14:02:49.981Z,97.00
2019-05-28T14:05:25.254Z,97.80
2019-05-28T14:08:00.632Z,96.60
2019-05-28T14:10:40.500Z,94.30
2019-05-28T14:13:24.251Z,92.10
2019-05-28T14:15:56.827Z,90.20
2019-05-28T14:18:43.043Z,88.80
2019-05-28T14:21:23.561Z,86.10
2019-05-28T14:23:54.313Z,84.10
2019-05-28T14:26:28.107Z,82.20
2019-05-28T14:29:02.155Z,79.70
2019-05-28T14:31:37.895Z,80.10
2019-05-28T14:34:10.464Z,90.30
2019-05-28T14:37:11.097Z,84.00
2019-05-28T14:39:53.315Z,77.80
2019-05-28T14:42:28.137Z,79.80
2019-05-28T14:45:01.924Z,85.60
2019-05-28T14:48:03.001Z,95.00
2019-05-28T14:50:42.868Z,94.80
2019-05-28T14:53:22.348Z,95.60
2019-05-28T14:56:12.800Z,93.50
2019-05-28T14:58:45.763Z,94.30
2019-05-28T15:01:21.877Z,96.50
2019-05-28T15:04:04.220Z,96.10
2019-05-28T15:06:36.395Z,95.80
2019-05-28T15:09:21.269Z,94.80
2019-05-28T15:11:50.973Z,95.80
2019-05-28T15:14:23.328Z,97.80
2019-05-28T15:16:54.264Z,96.40
2019-05-28T15:19:41.316Z,97.80
2019-05-28T15:22:35.191Z,99.70
2019-05-28T15:25:14.572Z,99.90
2019-05-28T15:27:46.969Z,99.90
2019-05-28T15:30:19.964Z,99.90
2019-05-28T15:32:50.670Z,99.90
2019-05-28T15:35:27.329Z,99.90
2019-05-28T15:38:02.296Z,99.90
2019-05-28T15:40:36.679Z,99.90
2019-05-28T15:43:12.643Z,99.90
2019-05-28T15:45:52.823Z,99.90
2019-05-28T15:48:28.745Z,99.90
2019-05-28T15:51:00.236Z,99.90
2019-05-28T15:53:37.977Z,99.90
2019-05-28T15:56:13.240Z,99.90
2019-05-28T15:58:41.467Z,99.90
2019-05-28T16:01:16.046Z,99.90
2019-05-28T16:03:48.138Z,99.90
2019-05-28T16:06:21.012Z,99.90
2019-05-28T16:08:51.702Z,99.90
2019-05-28T16:11:27.179Z,99.90
2019-05-28T16:13:59.764Z,99.90
2019-05-28T16:16:30.228Z,99.90
2019-05-28T16:19:02.180Z,99.90
2019-05-28T16:21:51.229Z,99.90
2019-05-28T16:24:25.607Z,99.90
2019-05-28T16:26:59.839Z,99.90
2019-05-28T16:29:31.091Z,99.90
2019-05-28T16:32:06.794Z,99.90
2019-05-28T16:34:41.497Z,99.90
2019-05-28T16:40:41.622Z,99.90
2019-05-28T16:43:24.355Z,99.90
2019-05-28T16:46:23.849Z,99.90
2019-05-28T16:49:02.875Z,99.90
2019-05-28T16:51:58.908Z,99.90
2019-05-28T16:54:33.309Z,99.90
2019-05-28T16:57:04.777Z,99.90
2019-05-28T16:59:39.446Z,99.90
2019-05-28T17:02:45.424Z,99.90
2019-05-28T17:05:35.798Z,99.90
2019-05-28T17:08:14.246Z,99.90
2019-05-28T17:11:10.525Z,99.90
2019-05-28T17:13:50.714Z,99.90
2019-05-28T17:16:25.059Z,99.90
2019-05-28T17:19:44.857Z,99.90
2019-05-28T17:22:48.313Z,99.90
2019-05-28T17:25:28.282Z,99.90
2019-05-28T17:28:04.605Z,99.90
2019-05-28T17:31:21.311Z,99.90
2019-05-28T17:33:28.714Z,99.90
2019-05-28T17:36:21.588Z,99.90
2019-05-28T17:38:58.335Z,99.90
2019-05-28T17:41:40.526Z,99.90
2019-05-28T17:44:18.832Z,99.90
2019-05-28T17:46:50.893Z,99.90
2019-05-28T17:49:24.532Z,99.90
2019-05-28T17:52:03.740Z,99.90
2019-05-28T17:54:41.531Z,99.90
2019-05-28T17:57:16.139Z,99.90
2019-05-28T17:59:47.747Z,99.90
2019-05-28T18:02:22.276Z,99.90
2019-05-28T18:04:56.713Z,99.90
2019-05-28T18:07:28.226Z,99.90
2019-05-28T18:10:04.024Z,99.90
2019-05-28T18:12:34.577Z,99.90
2019-05-28T18:15:08.554Z,99.90
2019-05-28T18:17:39.137Z,99.90
2019-05-28T18:20:17.976Z,99.90
2019-05-28T18:23:04.350Z,99.90
2019-05-28T18:25:35.344Z,99.90
2019-05-28T18:28:06.083Z,99.90
2019-05-28T18:30:44.966Z,99.90
2019-05-28T18:33:20.537Z,99.90
2019-05-28T18:35:57.786Z,99.90
2019-05-28T18:38:30.910Z,99.90
2019-05-28T18:41:01.559Z,99.90
2019-05-28T18:44:10.027Z,99.90
2019-05-28T18:47:37.711Z,99.90
2019-05-28T18:50:09.519Z,99.90
2019-05-28T18:52:50.453Z,99.90
2019-05-28T18:55:23.510Z,99.90
2019-05-28T18:57:57.066Z,99.90
2019-05-28T19:00:34.422Z,99.90
2019-05-28T19:03:29.130Z,99.90
2019-05-28T19:06:15.496Z,99.90
2019-05-28T19:08:47.960Z,99.90
2019-05-28T19:11:34.893Z,99.90
2019-05-28T19:13:55.622Z,99.90
2019-05-28T19:16:27.950Z,99.90
2019-05-28T19:19:08.954Z,99.90
2019-05-28T19:21:49.787Z,99.90
2019-05-28T19:24:20.728Z,99.90
2019-05-28T19:27:02.898Z,99.90
2019-05-28T19:29:41.444Z,99.90
2019-05-28T19:32:41.406Z,99.90
2019-05-28T19:35:32.726Z,99.90
2019-05-28T19:38:04.699Z,99.90
2019-05-28T19:40:40.130Z,99.90
2019-05-28T19:43:12.680Z,99.90
2019-05-28T19:45:52.381Z,99.90
2019-05-28T19:48:25.681Z,99.90
2019-05-28T19:50:59.882Z,99.90
2019-05-28T19:53:33.408Z,99.90
2019-05-28T19:56:17.328Z,99.90
2019-05-28T19:58:58.728Z,99.90
2019-05-28T20:01:39.374Z,99.90
2019-05-28T20:04:12.757Z,99.90
2019-05-28T20:06:53.530Z,99.90
2019-05-28T20:09:37.052Z,99.90
2019-05-28T20:12:19.769Z,99.90
2019-05-28T20:14:50.275Z,99.90
2019-05-28T20:17:34.900Z,99.90
2019-05-28T20:20:26.334Z,99.90
2019-05-28T20:22:57.144Z,99.90
2019-05-28T20:25:30.946Z,99.90
2019-05-28T20:28:01.360Z,99.90
2019-05-28T20:30:33.228Z,99.90
2019-05-28T20:33:07.411Z,99.90
2019-05-28T20:35:43.038Z,99.90
2019-05-28T20:38:43.182Z,99.90
2019-05-28T20:41:14.359Z,99.90
2019-05-28T20:43:46.686Z,99.90
2019-05-28T20:46:21.887Z,99.90
2019-05-28T20:48:53.007Z,99.90
2019-05-28T20:51:25.687Z,99.90
2019-05-28T20:53:57.499Z,99.90
2019-05-28T20:56:32.305Z,99.90
2019-05-28T20:59:13.756Z,99.90
2019-05-28T21:01:49.650Z,99.90
2019-05-28T21:04:27.175Z,99.90
2019-05-28T21:07:07.404Z,99.90
2019-05-28T21:09:38.935Z,99.90
2019-05-28T21:12:10.116Z,99.90
2019-05-28T21:14:52.926Z,99.90
2019-05-28T21:17:23.400Z,99.90
2019-05-28T21:19:55.317Z,99.90
2019-05-28T21:22:35.427Z,99.90
2019-05-28T21:25:06.803Z,99.90
2019-05-28T21:27:40.245Z,99.90
2019-05-28T21:30:18.488Z,99.90
2019-05-28T21:32:50.672Z,99.90
2019-05-28T21:35:22.292Z,99.90
2019-05-28T21:37:55.613Z,99.90
2019-05-28T21:40:25.954Z,99.90
2019-05-28T21:43:06.135Z,99.90
2019-05-28T21:45:34.478Z,99.90
2019-05-28T21:48:06.052Z,99.90
2019-05-28T21:50:36.642Z,99.90
2019-05-28T21:53:10.469Z,99.90
2019-05-28T21:55:42.428Z,99.90
2019-05-28T21:58:17.678Z,99.90
2019-05-28T22:01:05.934Z,99.90
2019-05-28T22:03:42.131Z,99.90
2019-05-28T22:06:14.772Z,99.90
2019-05-28T22:08:44.928Z,99.90
2019-05-28T22:11:16.534Z,99.90
2019-05-28T22:13:48.673Z,99.90
2019-05-28T22:16:29.923Z,99.90
2019-05-28T22:19:02.787Z,99.90
2019-05-28T22:21:34.625Z,99.90
2019-05-28T22:24:08.690Z,99.90
2019-05-28T22:26:42.575Z,99.90
2019-05-28T22:29:23.967Z,99.90
2019-05-28T22:31:56.772Z,99.90
2019-05-28T22:34:27.543Z,99.90
2019-05-28T22:37:02.337Z,99.90
2019-05-28T22:39:33.757Z,99.90
2019-05-28T22:42:07.922Z,99.90
2019-05-28T22:44:39.971Z,99.90
2019-05-28T22:47:11.302Z,99.90
2019-05-28T22:49:41.762Z,99.90
2019-05-28T22:52:12.512Z,99.90
2019-05-28T22:54:44.740Z,99.90
2019-05-28T22:57:16.220Z,99.90
2019-05-28T22:59:46.449Z,99.90
2019-05-28T23:02:23.600Z,99.90
2019-05-28T23:04:54.213Z,99.90
2019-05-28T23:07:27.692Z,99.90
2019-05-28T23:09:59.510Z,99.90
2019-05-28T23:12:29.524Z,99.90
2019-05-28T23:15:00.035Z,99.90
2019-05-28T23:17:30.085Z,99.90
2019-05-28T23:20:00.660Z,99.90
2019-05-28T23:22:30.964Z,99.90
2019-05-28T23:25:05.836Z,99.90
2019-05-28T23:27:35.512Z,99.90
2019-05-28T23:30:21.373Z,99.90
2019-05-28T23:32:39.243Z,99.90
2019-05-28T23:35:10.740Z,99.90
2019-05-28T23:37:45.502Z,99.90
2019-05-28T23:40:22.107Z,99.90
2019-05-28T23:42:58.570Z,99.90
2019-05-28T23:45:28.509Z,99.90
2019-05-28T23:48:07.290Z,99.90
2019-05-28T23:50:40.010Z,99.90
2019-05-28T23:53:12.401Z,99.90
2019-05-28T23:55:47.666Z,99.90
2019-05-28T23:58:24.013Z,99.90
